Time;durP1;ratioP1;P1;durP2;ratioP2;P2;SDS_P1;SDS_P2;PMS_P1;PMS_P2;Temp;Humidity;BMP_temperature;BMP_pressure;BME280_temperature;BME280_humidity;BME280_pressure;Samples;Min_cycle;Max_cycle;Signal;HPM_P1;HPM_P2
2023/10/09 00:02:55;;;;;;;11.33;6.53;;;;;;;20.30;54.86;101626.25;2358261;75;22353;-79
2023/10/09 00:05:58;;;;;;;15.63;6.75;;;;;;;20.31;54.72;101613.14;2355435;75;50619;-79
2023/10/09 00:09:11;;;;;;;13.40;6.83;;;;;;;20.29;54.75;101598.52;2330477;75;50941;-79
2023/10/09 00:12:10;;;;;;;9.98;6.30;;;;;;;20.28;54.60;101587.44;2328371;75;22367;-78
2023/10/09 00:15:12;;;;;;;10.55;6.55;;;;;;;20.28;54.80;101578.55;2329812;75;22388;-78
2023/10/09 00:18:12;;;;;;;12.75;6.42;;;;;;;20.28;54.79;101589.30;2330762;75;22406;-78
2023/10/09 00:21:23;;;;;;;8.38;5.72;;;;;;;20.27;54.87;101580.88;2330577;75;51384;-78
2023/10/09 00:24:25;;;;;;;12.07;6.67;;;;;;;20.26;54.84;101576.02;2354520;75;22590;-78
2023/10/09 00:27:31;;;;;;;11.83;6.12;;;;;;;20.26;54.79;101569.30;2331125;75;51434;-78
2023/10/09 00:30:31;;;;;;;13.10;6.10;;;;;;;20.27;54.64;101571.47;2356046;75;22331;-78
2023/10/09 00:33:34;;;;;;;10.40;6.12;;;;;;;20.26;54.80;101553.69;2333512;75;50120;-78
2023/10/09 00:36:49;;;;;;;10.68;6.03;;;;;;;20.27;54.64;101551.32;2355293;75;51433;-78
2023/10/09 00:39:43;;;;;;;12.20;5.90;;;;;;;20.27;54.72;101550.84;2357706;74;22313;-78
2023/10/09 00:42:44;;;;;;;9.53;5.47;;;;;;;20.27;54.70;101545.46;2330667;75;22805;-78
2023/10/09 00:45:47;;;;;;;13.55;6.03;;;;;;;20.27;54.76;101536.53;2376240;74;51479;-78
2023/10/09 00:48:59;;;;;;;12.05;5.67;;;;;;;20.27;54.82;101527.12;2355356;75;51567;-78
2023/10/09 00:52:01;;;;;;;9.80;5.72;;;;;;;20.28;54.83;101529.66;2377836;74;21985;-78
2023/10/09 00:55:13;;;;;;;8.95;5.55;;;;;;;20.25;54.71;101521.95;2354888;75;50246;-78
2023/10/09 00:58:12;;;;;;;9.35;5.65;;;;;;;20.26;54.69;101516.89;2332453;75;22984;-78
2023/10/09 01:01:17;;;;;;;;;;;;;;;20.27;54.76;101515.90;2362479;74;50765;-78
2023/10/09 01:04:19;;;;;;;7.58;5.08;;;;;;;20.29;54.72;101500.41;2356059;75;50753;-78
2023/10/09 01:07:25;;;;;;;11.45;5.22;;;;;;;20.27;54.71;101496.22;2355556;75;50245;-78
2023/10/09 01:10:33;;;;;;;8.28;4.95;;;;;;;20.26;54.76;101494.56;2330622;75;22446;-78
2023/10/09 01:13:39;;;;;;;8.05;5.12;;;;;;;20.25;54.82;101495.58;2329583;75;22384;-78
2023/10/09 01:16:33;;;;;;;9.00;5.00;;;;;;;20.26;54.63;101481.95;2329251;75;22465;-78
2023/10/09 01:19:35;;;;;;;9.23;5.28;;;;;;;20.25;54.74;101478.95;2330352;75;51447;-78
2023/10/09 01:22:37;;;;;;;12.30;5.15;;;;;;;20.25;54.80;101468.20;2328825;75;51159;-78
2023/10/09 01:25:44;;;;;;;13.40;5.08;;;;;;;20.25;54.74;101458.80;2357435;75;50246;-79
2023/10/09 01:28:46;;;;;;;9.58;5.10;;;;;;;20.25;54.76;101452.08;2357488;75;51539;-78
2023/10/09 01:31:56;;;;;;;10.55;5.30;;;;;;;20.27;54.82;101445.16;2323525;75;50986;-78
2023/10/09 01:34:58;;;;;;;9.70;5.00;;;;;;;20.25;54.80;101421.17;2337846;75;50809;-79
2023/10/09 01:38:00;;;;;;;13.03;4.97;;;;;;;20.27;54.68;101419.63;2363676;75;51315;-78
2023/10/09 01:41:08;;;;;;;9.03;5.10;;;;;;;20.25;54.80;101404.22;2363906;75;50721;-79
2023/10/09 01:44:10;;;;;;;10.80;5.53;;;;;;;20.26;54.62;101391.09;2363509;75;22322;-79
2023/10/09 01:47:18;;;;;;;9.50;4.70;;;;;;;20.26;54.75;101382.52;2336166;75;52494;-79
2023/10/09 01:50:20;;;;;;;10.28;5.10;;;;;;;20.26;54.75;101374.97;2361787;75;21974;-78
2023/10/09 01:53:27;;;;;;;8.83;4.10;;;;;;;20.27;54.67;101361.85;2337259;75;50470;-83
2023/10/09 01:56:26;;;;;;;8.58;4.83;;;;;;;20.25;54.71;101343.75;2336279;75;22527;-79
2023/10/09 01:59:28;;;;;;;6.67;4.22;;;;;;;20.25;54.78;101349.13;2336071;75;51511;-78
2023/10/09 02:02:33;;;;;;;7.67;3.80;;;;;;;20.24;54.76;101342.89;2356322;75;50192;-78
2023/10/09 02:05:36;;;;;;;7.37;4.00;;;;;;;20.26;54.64;101346.75;2330380;75;22415;-77
2023/10/09 02:08:38;;;;;;;10.03;4.62;;;;;;;20.26;54.69;101350.27;2330687;75;50289;-78
2023/10/09 02:11:41;;;;;;;8.63;4.40;;;;;;;20.27;54.66;101339.01;2296109;75;52406;-78
2023/10/09 02:14:44;;;;;;;11.57;4.47;;;;;;;20.25;54.68;101330.31;2357490;75;50836;-78
2023/10/09 02:18:00;;;;;;;8.05;3.98;;;;;;;20.25;54.65;101332.48;2357511;75;50799;-78
2023/10/09 02:24:09;;;;;;;7.42;4.03;;;;;;;20.27;54.78;101337.66;2355741;75;22187;-80
2023/10/09 02:27:11;;;;;;;7.45;3.92;;;;;;;20.26;54.64;101358.34;2324923;75;50649;-78
2023/10/09 02:30:19;;;;;;;6.20;4.03;;;;;;;20.27;54.75;101351.10;2331143;75;50300;-78
2023/10/09 02:34:08;;;;;;;9.20;4.22;;;;;;;20.25;54.70;101327.11;2340456;75;22357;-78
2023/10/09 02:36:28;;;;;;;11.20;4.70;;;;;;;20.25;54.71;101333.83;2339022;75;22337;-78
2023/10/09 02:39:36;;;;;;;11.80;4.12;;;;;;;20.26;54.79;101334.66;2336663;75;51536;-77
2023/10/09 02:42:34;;;;;;;5.62;3.80;;;;;;;20.26;54.70;101350.78;2335800;75;22406;-78
2023/10/09 02:45:46;;;;;;;8.95;4.17;;;;;;;20.25;54.78;101350.47;2335956;75;52536;-77
2023/10/09 02:48:47;;;;;;;10.20;4.42;;;;;;;20.25;54.83;101350.47;2335378;75;22316;-78
2023/10/09 02:51:53;;;;;;;9.98;4.12;;;;;;;20.26;54.74;101337.34;2363507;74;22538;-78
2023/10/09 02:54:59;;;;;;;8.43;3.60;;;;;;;20.25;54.72;101312.33;2317432;76;22577;-77
2023/10/09 02:58:14;;;;;;;6.75;4.15;;;;;;;20.24;54.73;101294.52;2337950;76;31301;-77
2023/10/09 03:01:17;;;;;;;5.97;3.90;;;;;;;20.24;54.73;101287.80;2309621;76;22447;-78
2023/10/09 03:04:19;;;;;;;8.58;3.72;;;;;;;20.26;54.65;101288.98;2327391;75;22979;-78
2023/10/09 03:07:23;;;;;;;8.25;4.17;;;;;;;20.26;54.60;101279.57;2359644;75;22246;-78
2023/10/09 03:10:25;;;;;;;5.22;3.55;;;;;;;20.25;54.75;101285.45;2307610;75;23218;-79
2023/10/09 03:13:28;;;;;;;7.05;3.90;;;;;;;20.26;54.78;101275.54;2367537;75;51595;-78
2023/10/09 03:16:31;;;;;;;5.22;3.62;;;;;;;20.25;54.64;101271.20;2359338;75;50684;-78
2023/10/09 03:19:37;;;;;;;7.22;4.10;;;;;;;20.24;54.65;101255.55;2332663;75;51420;-79
2023/10/09 03:22:40;;;;;;;9.88;4.10;;;;;;;20.23;54.77;101249.34;2333563;75;50287;-79
2023/10/09 03:25:47;;;;;;;8.13;3.62;;;;;;;20.23;54.67;101241.28;2332631;75;51074;-78
2023/10/09 03:28:50;;;;;;;6.97;3.42;;;;;;;20.26;54.75;101232.03;2358395;75;21721;-79
2023/10/09 03:31:52;;;;;;;5.62;3.33;;;;;;;20.27;54.79;101224.80;2358262;75;50678;-79
2023/10/09 03:34:55;;;;;;;4.92;3.20;;;;;;;20.25;54.72;101221.48;2236772;76;51122;-79
2023/10/09 03:38:19;;;;;;;5.00;3.52;;;;;;;20.26;54.69;101214.56;2261576;76;50766;-78
2023/10/09 03:41:07;;;;;;;12.15;3.58;;;;;;;20.25;54.72;101217.45;2308496;76;22380;-79
2023/10/09 03:44:10;;;;;;;5.90;3.22;;;;;;;20.22;54.59;101197.98;2262150;76;51559;-78
2023/10/09 03:47:16;;;;;;;7.28;3.12;;;;;;;20.23;54.82;101192.92;2262027;76;50862;-78
2023/10/09 03:50:35;;;;;;;9.23;3.60;;;;;;;20.23;54.82;101174.11;2318763;76;22323;-78
2023/10/09 03:53:30;;;;;;;5.67;3.10;;;;;;;20.23;54.76;101173.28;2270131;74;22304;-78
2023/10/09 03:56:32;;;;;;;6.97;3.58;;;;;;;20.25;54.72;101161.84;2355380;75;50329;-79
2023/10/09 03:59:37;;;;;;;6.70;3.50;;;;;;;20.25;54.72;101155.64;2304956;74;51525;-79
2023/10/09 04:02:38;;;;;;;5.40;3.17;;;;;;;20.23;54.65;101144.55;2359624;74;22311;-78
2023/10/09 04:05:42;;;;;;;8.33;3.20;;;;;;;20.22;54.68;101142.89;2374066;74;50245;-78
2023/10/09 04:08:47;;;;;;;5.78;3.02;;;;;;;20.23;54.74;101150.44;2346810;75;50425;-78
2023/10/09 04:12:39;;;;;;;7.87;3.60;;;;;;;20.23;54.78;101154.47;2359622;74;50301;-78
2023/10/09 04:14:54;;;;;;;4.65;3.17;;;;;;;20.24;54.71;101178.97;2337154;75;22369;-78
2023/10/09 04:17:57;;;;;;;6.00;3.00;;;;;;;20.24;54.73;101178.97;2346638;75;50677;-79
2023/10/09 04:27:17;;;;;;;8.20;3.30;;;;;;;20.22;54.81;101189.91;2359434;74;22379;-79
2023/10/09 04:30:19;;;;;;;6.75;3.05;;;;;;;20.22;54.85;101184.54;2345913;75;51587;-78
2023/10/09 04:36:46;;;;;;;6.25;2.80;;;;;;;20.24;54.75;101173.59;2355875;75;22457;-79
2023/10/09 04:39:49;;;;;;;6.08;3.20;;;;;;;20.22;54.76;101150.12;2329750;75;22446;-78
2023/10/09 04:43:06;;;;;;;4.80;2.77;;;;;;;20.21;54.86;101165.90;2331871;75;50445;-78
2023/10/09 04:46:12;;;;;;;9.20;2.92;;;;;;;20.24;54.84;101181.66;2309128;75;22335;-78
2023/10/09 04:49:27;;;;;;;9.25;3.05;;;;;;;20.22;54.96;101166.25;2306541;75;23188;-78
2023/10/09 04:55:38;;;;;;;8.18;3.33;;;;;;;20.21;54.90;101165.38;2336998;75;22351;-78
2023/10/09 04:58:39;;;;;;;11.10;3.05;;;;;;;20.22;55.14;101164.91;2370741;75;22372;-78
2023/10/09 05:01:46;;;;;;;6.45;3.08;;;;;;;20.21;55.30;101155.98;2354803;73;50281;-78
2023/10/09 05:04:51;;;;;;;8.08;3.35;;;;;;;20.23;55.55;101161.19;2369956;75;22961;-78
2023/10/09 05:07:54;;;;;;;;;;;;;;;20.22;55.69;101145.58;2377945;74;22848;-80
2023/10/09 05:14:26;;;;;;;8.68;3.35;;;;;;;20.21;56.07;101133.14;2371539;74;22157;-80
2023/10/09 05:17:15;;;;;;;17.12;3.83;;;;;;;20.25;56.63;101134.14;2366206;74;22415;-80
2023/10/09 05:23:44;;;;;;;17.90;4.20;;;;;;;20.23;57.11;101137.83;2341334;75;22870;-79
2023/10/09 05:26:53;;;;;;;16.23;4.08;;;;;;;20.23;57.38;101131.11;2369008;75;22242;-79
2023/10/09 05:30:12;;;;;;;23.92;4.08;;;;;;;20.25;57.01;101128.26;2297744;73;22397;-80
2023/10/09 05:33:46;;;;;;;19.02;4.42;;;;;;;20.26;56.84;101129.91;2366947;73;22303;-80
2023/10/09 05:39:41;;;;;;;18.67;4.33;;;;;;;20.25;56.96;101126.08;2342301;75;22385;-79
2023/10/09 05:42:44;;;;;;;16.25;4.10;;;;;;;20.28;56.70;101135.12;2313205;75;52528;-79
2023/10/09 05:49:19;;;;;;;23.05;4.45;;;;;;;20.26;56.50;101125.05;2373407;75;22257;-79
2023/10/09 06:05:51;;;;;;;26.90;4.65;;;;;;;20.26;56.94;101138.48;2414206;73;22390;-79
2023/10/09 06:11:55;;;;;;;24.60;5.15;;;;;;;20.24;57.22;101130.59;2378893;73;22268;-79
2023/10/09 06:18:32;;;;;;;24.20;5.42;;;;;;;20.23;56.82;101132.45;2375294;74;24398;-79
2023/10/09 06:24:54;;;;;;;27.45;4.75;;;;;;;20.23;56.35;101128.42;2372834;75;22565;-79
2023/10/09 06:30:53;;;;;;;23.73;4.83;;;;;;;20.23;56.37;101113.64;2338251;75;22217;-79
2023/10/09 06:34:15;;;;;;;25.85;4.87;;;;;;;20.23;56.41;101115.50;2365045;73;52355;-79
2023/10/09 06:37:38;;;;;;;25.45;5.05;;;;;;;20.23;56.37;101115.50;2410822;73;22084;-79
2023/10/09 06:43:36;;;;;;;25.15;5.20;;;;;;;20.22;56.43;101107.95;2407538;73;22231;-79
2023/10/09 06:46:45;;;;;;;16.87;5.03;;;;;;;20.23;56.31;101108.27;2378794;73;22963;-79
2023/10/09 06:50:24;;;;;;;26.05;5.25;;;;;;;20.23;56.17;101109.61;2353427;73;50034;-79
2023/10/09 06:52:58;;;;;;;19.32;4.95;;;;;;;20.22;56.25;101107.95;2402386;73;22782;-79
2023/10/09 06:56:06;;;;;;;26.45;5.00;;;;;;;20.23;56.14;101102.90;2415166;73;50446;-79
2023/10/09 06:59:16;;;;;;;19.85;5.05;;;;;;;20.22;56.24;101102.58;2380854;73;50492;-79
2023/10/09 07:02:48;;;;;;;21.00;5.10;;;;;;;20.23;56.29;101088.63;2357023;73;22289;-79
2023/10/09 07:05:31;;;;;;;23.02;5.37;;;;;;;20.20;56.41;101088.48;2391581;73;22443;-78
2023/10/09 07:08:31;;;;;;;23.10;5.60;;;;;;;20.22;56.36;101082.95;2379266;73;21762;-79
2023/10/09 07:15:01;;;;;;;20.02;5.62;;;;;;;20.21;56.38;101088.80;2415443;73;22185;-79
2023/10/09 07:17:52;;;;;;;17.75;5.47;;;;;;;20.22;56.31;101092.35;2403768;73;22259;-78
2023/10/09 07:21:01;;;;;;;22.40;6.30;;;;;;;20.23;56.27;101094.84;2415859;73;51312;-79
2023/10/09 07:24:14;;;;;;;20.02;6.37;;;;;;;20.22;56.28;101101.24;2353150;73;51705;-78
2023/10/09 07:27:14;;;;;;;25.57;6.33;;;;;;;20.22;56.25;101087.80;2377972;73;22028;-78
2023/10/09 07:33:56;;;;;;;29.87;6.60;;;;;;;20.22;56.31;101085.13;2370683;73;22246;-79
2023/10/09 07:36:56;;;;;;;24.05;6.35;;;;;;;20.22;56.34;101097.73;2343487;75;22481;-78
2023/10/09 07:39:58;;;;;;;23.90;6.65;;;;;;;20.23;56.32;101100.21;2307328;75;52604;-79
2023/10/09 07:43:05;;;;;;;21.45;6.37;;;;;;;20.22;56.18;101099.90;2333294;75;51536;-79
2023/10/09 07:49:24;;;;;;;18.70;5.65;;;;;;;20.25;56.36;101093.84;2309512;75;22894;-79
2023/10/09 07:52:21;;;;;;;21.75;6.62;;;;;;;20.25;56.33;101108.10;2335381;75;22995;-80
2023/10/09 07:55:39;;;;;;;20.20;5.95;;;;;;;20.22;56.33;101106.62;2373624;75;21681;-79
2023/10/09 07:58:33;;;;;;;19.82;5.72;;;;;;;20.22;56.24;101101.24;2338035;75;22291;-80
2023/10/09 08:01:35;;;;;;;15.55;5.75;;;;;;;20.24;56.36;101099.70;2336099;75;52473;-80
2023/10/09 08:04:37;;;;;;;22.17;6.10;;;;;;;20.23;56.21;101109.61;2336145;75;51553;-79
2023/10/09 08:07:54;;;;;;;18.52;6.35;;;;;;;20.25;56.29;101126.08;2373337;75;50380;-80
2023/10/09 08:11:35;;;;;;;21.27;5.85;;;;;;;20.26;56.19;101125.05;2336704;75;23042;-80
2023/10/09 08:13:56;;;;;;;17.48;5.70;;;;;;;20.23;56.41;101132.45;2368535;75;22081;-80
2023/10/09 08:17:16;;;;;;;20.15;5.95;;;;;;;20.23;56.34;101131.11;2365999;75;22225;-79
2023/10/09 08:20:11;;;;;;;25.10;6.10;;;;;;;20.26;56.27;101145.20;2362352;75;22318;-81
2023/10/09 08:23:04;;;;;;;20.32;5.30;;;;;;;20.23;56.29;101155.30;2337785;75;22363;-81
2023/10/09 08:26:29;;;;;;;22.85;6.12;;;;;;;20.23;56.29;101151.78;2366930;75;22390;-81
2023/10/09 08:29:20;;;;;;;21.77;5.67;;;;;;;20.25;56.30;101152.44;2371994;75;22267;-78
2023/10/09 08:32:38;;;;;;;22.35;5.72;;;;;;;20.26;56.27;101149.23;2374601;75;51536;-78
2023/10/09 08:35:47;;;;;;;18.95;6.22;;;;;;;20.22;56.36;101149.61;2372551;74;22503;-79
2023/10/09 08:38:35;;;;;;;19.95;5.83;;;;;;;20.23;56.38;101149.09;2351334;75;22233;-80
2023/10/09 08:41:38;;;;;;;15.83;5.30;;;;;;;20.23;56.34;101145.89;2374963;75;50180;-79
2023/10/09 08:44:44;;;;;;;12.93;5.30;;;;;;;20.21;56.39;101146.58;2351759;75;50719;-79
2023/10/09 08:47:44;;;;;;;14.75;4.95;;;;;;;20.21;56.48;101141.20;2373555;74;22421;-81
2023/10/09 08:50:49;;;;;;;19.30;5.97;;;;;;;20.23;56.43;101147.75;2350883;75;50756;-79
2023/10/09 08:53:52;;;;;;;16.35;5.40;;;;;;;20.20;56.48;101138.72;2374193;74;23237;-80
2023/10/09 08:56:54;;;;;;;15.98;4.90;;;;;;;20.23;56.32;101146.41;2380501;74;51293;-79
2023/10/09 08:59:56;;;;;;;14.85;4.87;;;;;;;20.22;56.44;101138.86;2394592;73;51195;-79
2023/10/09 09:03:03;;;;;;;15.68;5.25;;;;;;;20.21;56.42;101129.11;2338784;74;50966;-80
2023/10/09 09:06:03;;;;;;;14.85;5.53;;;;;;;20.22;56.37;101126.77;2352650;74;22349;-81
2023/10/09 09:09:15;;;;;;;15.70;4.95;;;;;;;20.22;56.35;101125.42;2380561;74;50695;-79
2023/10/09 09:12:18;;;;;;;15.08;4.80;;;;;;;20.22;56.38;101117.36;2354178;74;51432;-79
2023/10/09 09:15:21;;;;;;;15.72;5.12;;;;;;;20.22;56.35;101124.08;2386610;74;50727;-80
2023/10/09 09:18:29;;;;;;;12.45;5.10;;;;;;;20.26;56.32;101129.08;2353234;74;51277;-78
2023/10/09 09:21:28;;;;;;;14.53;4.65;;;;;;;20.28;56.24;101124.38;2379493;74;22923;-79
2023/10/09 09:24:31;;;;;;;13.35;4.37;;;;;;;20.22;56.35;101120.56;2385777;74;50831;-79
2023/10/09 09:27:55;;;;;;;14.50;5.20;;;;;;;20.21;56.39;101108.13;2352871;74;52591;-80
2023/10/09 09:31:22;;;;;;;12.60;4.53;;;;;;;20.22;56.33;101111.16;2352722;74;51769;-79
2023/10/09 09:34:25;;;;;;;17.15;4.37;;;;;;;20.21;56.35;101111.64;2381758;74;22168;-79
2023/10/09 09:37:21;;;;;;;14.73;4.78;;;;;;;20.21;56.33;101107.61;2352838;74;22705;-80
2023/10/09 09:40:29;;;;;;;12.95;4.90;;;;;;;20.22;56.33;101105.78;2354109;74;50736;-79
2023/10/09 09:43:35;;;;;;;11.10;4.45;;;;;;;20.25;56.24;101107.27;2386635;74;51119;-80
2023/10/09 09:46:37;;;;;;;15.68;4.95;;;;;;;20.25;56.25;101108.62;2386648;74;22310;-79
2023/10/09 09:49:43;;;;;;;10.93;4.33;;;;;;;20.30;56.14;101118.31;2381403;74;50748;-79
2023/10/09 09:52:46;;;;;;;12.33;5.17;;;;;;;20.30;56.07;101120.48;2326898;74;51742;-79
2023/10/09 09:55:57;;;;;;;12.98;4.28;;;;;;;20.28;56.17;101135.12;2385891;74;50518;-79
2023/10/09 09:58:59;;;;;;;11.28;4.05;;;;;;;20.24;56.27;101134.63;2333934;75;22901;-81
2023/10/09 10:02:10;;;;;;;15.13;4.53;;;;;;;20.21;56.33;101140.38;2352274;74;50477;-79
2023/10/09 10:05:07;;;;;;;12.68;4.70;;;;;;;20.22;56.27;101141.55;2362807;74;22158;-79
2023/10/09 10:08:13;;;;;;;11.48;4.40;;;;;;;20.19;56.36;101140.58;2367793;75;51277;-80
2023/10/09 10:11:35;;;;;;;13.65;4.50;;;;;;;20.21;56.33;101129.11;2364875;74;51900;-79
2023/10/09 10:14:58;;;;;;;11.70;4.33;;;;;;;20.21;56.30;101129.11;2363053;75;50761;-79
2023/10/09 10:18:04;;;;;;;10.03;4.12;;;;;;;20.28;56.13;101121.68;2350815;75;51782;-79
2023/10/09 10:21:17;;;;;;;;;;;;;;;20.32;56.02;101127.00;2366271;75;50758;-78
2023/10/09 10:24:32;;;;;;;11.93;3.30;;;;;;;20.34;55.94;101127.66;2362958;74;51578;-79
2023/10/09 10:27:44;;;;;;;9.40;3.62;;;;;;;20.30;56.00;101120.48;2350063;75;51620;-80
2023/10/09 10:30:43;;;;;;;9.13;3.52;;;;;;;20.28;56.04;101126.54;2332537;74;22303;-78
2023/10/09 10:33:58;;;;;;;13.55;4.03;;;;;;;20.23;56.18;101117.67;2373837;74;50831;-80
2023/10/09 10:37:00;;;;;;;11.18;4.05;;;;;;;20.22;56.19;101105.27;2359229;75;50921;-80
2023/10/09 10:40:13;;;;;;;10.82;3.95;;;;;;;20.21;56.22;101110.81;2334410;75;50607;-79
2023/10/09 10:43:12;;;;;;;10.03;3.85;;;;;;;20.21;56.24;101112.98;2359620;75;21798;-78
2023/10/09 10:49:40;;;;;;;7.87;3.77;;;;;;;20.31;55.99;101107.87;2338814;75;22270;-80
2023/10/09 10:52:42;;;;;;;9.48;3.85;;;;;;;20.37;55.84;101105.78;2334096;75;49631;-80
2023/10/09 10:59:26;;;;;;;9.60;3.87;;;;;;;20.40;55.71;101106.27;2361693;75;22285;-79
2023/10/09 11:02:31;;;;;;;8.53;3.37;;;;;;;20.34;55.79;101103.47;2360412;75;50465;-79
2023/10/09 11:05:39;;;;;;;8.70;3.22;;;;;;;20.28;56.01;101098.33;2361625;74;22209;-79
2023/10/09 11:08:36;;;;;;;7.17;3.15;;;;;;;20.25;56.09;101100.04;2361055;74;22162;-78
2023/10/09 11:11:46;;;;;;;11.30;3.40;;;;;;;20.24;56.15;101102.38;2361663;75;50341;-79
2023/10/09 11:15:05;;;;;;;9.65;4.37;;;;;;;20.23;56.19;101102.90;2349613;75;22326;-79
2023/10/09 11:18:07;;;;;;;8.95;3.62;;;;;;;20.23;56.14;101104.24;2331121;75;22368;-80
2023/10/09 11:24:25;;;;;;;8.75;3.15;;;;;;;20.35;55.88;101093.89;2335005;75;22363;-80
2023/10/09 11:27:32;;;;;;;10.10;3.50;;;;;;;20.39;55.76;101087.63;2359460;75;51464;-80
2023/10/09 11:30:32;;;;;;;8.30;3.58;;;;;;;20.34;55.83;101084.14;2364136;74;22300;-80
2023/10/09 11:33:52;;;;;;;8.65;3.50;;;;;;;20.31;55.90;101079.14;2337579;75;52495;-80
2023/10/09 11:36:55;;;;;;;8.38;3.50;;;;;;;20.25;56.08;101082.58;2357652;75;50457;-80
2023/10/09 11:40:00;;;;;;;6.75;3.25;;;;;;;20.23;56.14;101067.14;2379538;74;52114;-81
2023/10/09 11:43:03;;;;;;;8.33;4.20;;;;;;;20.24;56.16;101056.70;2351615;75;52466;-79
2023/10/09 11:46:13;;;;;;;6.95;3.15;;;;;;;20.23;56.14;101062.59;2352268;74;50675;-79
2023/10/09 11:55:38;;;;;;;6.58;3.20;;;;;;;20.37;55.77;101069.50;2357136;75;22076;-79
2023/10/09 11:58:40;;;;;;;6.33;3.42;;;;;;;20.41;55.65;101060.06;2383018;74;51121;-79
2023/10/09 12:01:52;;;;;;;5.30;2.95;;;;;;;20.41;55.68;101062.75;2354365;75;50637;-79
2023/10/09 12:04:49;;;;;;;6.78;3.20;;;;;;;20.40;55.70;101049.00;2370808;74;22308;-79
2023/10/09 12:07:57;;;;;;;6.42;3.00;;;;;;;20.42;55.59;101042.42;2335906;75;50762;-78
2023/10/09 12:10:56;;;;;;;6.22;2.75;;;;;;;20.34;55.83;101052.41;2337850;75;23036;-78
2023/10/09 12:14:00;;;;;;;7.12;2.83;;;;;;;20.30;55.93;101043.89;2363822;73;50829;-80
2023/10/09 12:17:08;;;;;;;7.95;3.52;;;;;;;20.27;56.04;101048.78;2352527;73;24793;-79
2023/10/09 12:20:22;;;;;;;5.65;2.92;;;;;;;20.26;56.01;101038.55;2415830;73;50511;-79
2023/10/09 12:23:14;;;;;;;6.78;3.33;;;;;;;20.30;55.96;101046.58;2413364;73;22002;-80
2023/10/09 12:26:16;;;;;;;4.53;2.87;;;;;;;20.27;56.01;101056.36;2391843;73;52249;-80
2023/10/09 12:29:19;;;;;;;5.40;3.17;;;;;;;20.26;56.04;101059.22;2373794;75;50718;-80
2023/10/09 12:32:22;;;;;;;6.28;3.08;;;;;;;20.22;56.17;101068.17;2328896;75;51785;-79
2023/10/09 12:35:28;;;;;;;7.35;3.00;;;;;;;20.22;56.19;101062.28;2373296;75;50020;-80
2023/10/09 12:38:32;;;;;;;5.78;2.98;;;;;;;20.23;56.17;101060.42;2353865;75;51299;-79
2023/10/09 12:41:41;;;;;;;5.28;2.98;;;;;;;20.20;56.21;101052.22;2353282;75;50094;-79
2023/10/09 12:44:39;;;;;;;4.97;2.83;;;;;;;20.20;56.21;101050.87;2367427;75;21987;-79
2023/10/09 12:47:42;;;;;;;4.83;3.15;;;;;;;20.22;56.12;101058.25;2350698;75;51514;-80
2023/10/09 12:50:44;;;;;;;5.92;3.00;;;;;;;20.25;56.07;101052.19;2339782;75;51551;-79
2023/10/09 12:53:56;;;;;;;8.10;3.52;;;;;;;20.32;55.89;101051.27;2351485;75;50762;-79
2023/10/09 12:56:51;;;;;;;6.27;3.23;;;;;;;20.36;55.78;101044.48;2350974;75;22313;-79
2023/10/09 12:59:54;;;;;;;7.20;3.50;;;;;;;20.37;55.72;101054.23;2389582;73;52120;-79
2023/10/09 13:03:00;;;;;;;7.92;2.90;;;;;;;20.39;55.66;101048.66;2386954;74;50792;-79
2023/10/09 13:06:03;;;;;;;10.05;3.47;;;;;;;20.37;55.71;101048.86;2381212;74;22363;-79
2023/10/09 13:09:06;;;;;;;6.50;2.90;;;;;;;20.35;55.73;101049.55;2354152;74;22567;-79
2023/10/09 13:12:08;;;;;;;5.37;2.83;;;;;;;20.38;55.67;101044.31;2381575;74;22353;-78
2023/10/09 13:15:10;;;;;;;6.05;3.45;;;;;;;20.30;55.83;101048.44;2381156;74;50772;-79
2023/10/09 13:18:14;;;;;;;6.90;2.75;;;;;;;20.25;55.99;101035.55;2381280;74;51693;-80
2023/10/09 13:21:23;;;;;;;6.12;3.15;;;;;;;20.25;55.96;101036.89;2353656;74;51823;-78
2023/10/09 13:24:29;;;;;;;5.45;3.00;;;;;;;20.34;55.75;101038.97;2385348;74;50783;-80
2023/10/09 13:27:33;;;;;;;6.10;3.15;;;;;;;20.40;55.62;101040.94;2306736;73;22491;-80
2023/10/09 13:30:39;;;;;;;6.00;3.10;;;;;;;20.41;55.59;101041.25;2339225;75;22108;-80
2023/10/09 13:33:40;;;;;;;5.05;2.72;;;;;;;20.40;55.58;101055.20;2326549;74;22445;-79
2023/10/09 13:37:11;;;;;;;6.75;3.02;;;;;;;20.40;55.57;101060.58;2264973;77;52585;-80
2023/10/09 13:39:52;;;;;;;6.12;3.20;;;;;;;20.37;55.63;101060.95;2262478;76;21854;-79
2023/10/09 13:42:58;;;;;;;5.83;2.85;;;;;;;20.37;55.70;101062.78;2300364;76;51522;-80
2023/10/09 13:46:03;;;;;;;5.60;2.83;;;;;;;20.32;55.71;101061.16;2242812;77;50136;-79
2023/10/09 13:49:09;;;;;;;5.87;3.30;;;;;;;20.27;55.90;101055.50;2267707;77;22514;-79
2023/10/09 13:52:08;;;;;;;7.80;3.35;;;;;;;20.26;55.89;101059.22;2274643;76;22421;-78
2023/10/09 13:55:17;;;;;;;5.97;3.17;;;;;;;20.31;55.86;101060.84;2266974;76;51306;-80
2023/10/09 13:58:20;;;;;;;5.75;3.08;;;;;;;20.33;55.72;101069.05;2268644;76;51170;-80
2023/10/09 14:01:28;;;;;;;6.10;3.20;;;;;;;20.38;55.62;101064.47;2241678;77;51215;-79
2023/10/09 14:04:30;;;;;;;4.72;2.90;;;;;;;20.38;55.58;101049.69;2244241;76;51488;-79
2023/10/09 14:07:34;;;;;;;6.22;3.00;;;;;;;20.38;55.55;101045.14;2263632;77;50851;-79
2023/10/09 14:10:38;;;;;;;3.83;2.60;;;;;;;20.35;55.61;101038.80;2288165;76;51712;-79
2023/10/09 14:13:41;;;;;;;5.55;3.05;;;;;;;20.35;55.66;101043.34;2295752;76;50695;-80
2023/10/09 14:16:44;;;;;;;6.67;2.83;;;;;;;20.32;56.42;101036.97;2314104;76;50143;-79
2023/10/09 14:19:48;;;;;;;7.28;3.50;;;;;;;20.26;57.01;101038.55;2314304;76;51623;-79
2023/10/09 14:22:52;;;;;;;5.40;3.12;;;;;;;20.25;56.43;101052.19;2263199;77;50496;-78
2023/10/09 14:25:56;;;;;;;4.35;2.77;;;;;;;20.34;56.09;101045.69;2242494;78;50817;-79
2023/10/09 14:28:58;;;;;;;5.72;3.10;;;;;;;20.38;55.97;101038.94;2247629;77;51281;-81
2023/10/09 14:32:00;;;;;;;6.83;3.30;;;;;;;20.39;55.84;101036.05;2254295;78;50264;-79
2023/10/09 14:35:03;;;;;;;5.45;2.75;;;;;;;20.40;55.79;101032.36;2257417;78;51717;-79
2023/10/09 14:38:11;;;;;;;5.37;3.00;;;;;;;20.38;55.82;101031.70;2259963;77;52041;-79
2023/10/09 14:41:11;;;;;;;6.62;3.00;;;;;;;20.40;55.77;101040.94;2284196;76;22446;-78
2023/10/09 14:44:16;;;;;;;4.50;2.75;;;;;;;20.38;55.77;101048.34;2284149;76;51281;-79
2023/10/09 14:47:18;;;;;;;7.55;3.40;;;;;;;20.36;55.79;101046.34;2284445;76;22332;-79
2023/10/09 14:50:24;;;;;;;4.50;2.98;;;;;;;20.38;55.72;101026.84;2282634;76;52442;-78
2023/10/09 14:53:26;;;;;;;4.50;3.08;;;;;;;20.33;55.84;101022.02;2284003;77;51806;-79
2023/10/09 14:56:30;;;;;;;5.58;3.02;;;;;;;20.30;55.83;101010.81;2282017;76;51304;-78
2023/10/09 14:59:36;;;;;;;5.83;3.22;;;;;;;20.35;55.75;101019.16;2281259;77;51233;-81
2023/10/09 15:02:39;;;;;;;5.25;3.12;;;;;;;20.36;55.72;101012.75;2280369;77;51539;-79
2023/10/09 15:05:42;;;;;;;5.47;3.20;;;;;;;20.37;55.70;101009.03;2256379;77;52238;-79
2023/10/09 15:08:46;;;;;;;6.70;3.22;;;;;;;20.36;55.70;101016.27;2232409;77;52427;-79
2023/10/09 15:11:49;;;;;;;3.85;2.90;;;;;;;20.36;55.68;101015.44;2261004;77;50678;-79
2023/10/09 15:14:53;;;;;;;6.80;3.45;;;;;;;20.35;55.71;101016.47;2292442;77;50940;-79
2023/10/09 15:17:55;;;;;;;5.90;3.00;;;;;;;20.29;55.82;101018.53;2234118;77;51813;-78
2023/10/09 15:20:58;;;;;;;4.40;3.12;;;;;;;20.27;55.81;101015.19;2259428;77;50140;-79
2023/10/09 15:24:00;;;;;;;6.03;3.08;;;;;;;20.22;55.99;101028.69;2292586;76;50782;-79
2023/10/09 15:27:02;;;;;;;5.08;2.98;;;;;;;20.25;55.88;101030.69;2235420;77;50262;-79
2023/10/09 15:30:06;;;;;;;4.40;2.95;;;;;;;20.31;55.79;101023.22;2293336;76;50757;-79
2023/10/09 15:33:10;;;;;;;7.08;3.50;;;;;;;20.37;55.65;101021.13;2312464;76;24660;-78
2023/10/09 15:36:25;;;;;;;5.00;3.22;;;;;;;20.37;55.59;101023.81;2261037;77;24499;-78
2023/10/09 15:39:23;;;;;;;6.85;3.75;;;;;;;20.37;55.57;101026.50;2284311;76;23068;-80
2023/10/09 15:42:26;;;;;;;5.33;3.33;;;;;;;20.34;55.64;101028.22;2235828;77;53103;-80